sensor_id;sensor_type;location;lat;lon;timestamp;temperature;humidity
41720;DHT22;27405;53.316;-6.294;2022-07-23T00:00:15;19.20;60.10
41720;DHT22;27405;53.316;-6.294;2022-07-23T00:02:41;19.20;59.80
41720;DHT22;27405;53.316;-6.294;2022-07-23T00:05:07;19.20;59.60
41720;DHT22;27405;53.316;-6.294;2022-07-23T00:07:33;19.20;59.70
41720;DHT22;27405;53.316;-6.294;2022-07-23T00:09:59;19.30;60.00
41720;DHT22;27405;53.316;-6.294;2022-07-23T00:12:25;19.20;60.00
41720;DHT22;27405;53.316;-6.294;2022-07-23T00:14:50;19.20;60.20
41720;DHT22;27405;53.316;-6.294;2022-07-23T00:17:16;19.20;60.40
41720;DHT22;27405;53.316;-6.294;2022-07-23T00:19:42;19.20;60.70
41720;DHT22;27405;53.316;-6.294;2022-07-23T00:22:08;19.20;61.10
41720;DHT22;27405;53.316;-6.294;2022-07-23T00:24:33;19.20;61.70
41720;DHT22;27405;53.316;-6.294;2022-07-23T00:26:59;19.20;62.20
41720;DHT22;27405;53.316;-6.294;2022-07-23T00:29:25;19.10;62.70
41720;DHT22;27405;53.316;-6.294;2022-07-23T00:31:50;19.20;63.10
41720;DHT22;27405;53.316;-6.294;2022-07-23T00:34:16;19.10;63.30
41720;DHT22;27405;53.316;-6.294;2022-07-23T00:36:42;19.10;63.80
41720;DHT22;27405;53.316;-6.294;2022-07-23T00:39:07;19.10;64.20
41720;DHT22;27405;53.316;-6.294;2022-07-23T00:41:33;19.20;64.60
41720;DHT22;27405;53.316;-6.294;2022-07-23T00:44:22;19.10;65.30
41720;DHT22;27405;53.316;-6.294;2022-07-23T00:46:54;19.10;65.30
41720;DHT22;27405;53.316;-6.294;2022-07-23T00:49:27;19.10;66.30
41720;DHT22;27405;53.316;-6.294;2022-07-23T00:51:53;19.10;66.70
41720;DHT22;27405;53.316;-6.294;2022-07-23T00:54:19;19.10;67.20
41720;DHT22;27405;53.316;-6.294;2022-07-23T00:56:46;19.00;68.10
41720;DHT22;27405;53.316;-6.294;2022-07-23T00:59:12;19.00;68.70
41720;DHT22;27405;53.316;-6.294;2022-07-23T01:01:38;19.00;69.10
41720;DHT22;27405;53.316;-6.294;2022-07-23T01:04:04;18.90;69.60
41720;DHT22;27405;53.316;-6.294;2022-07-23T01:06:34;18.90;70.20
41720;DHT22;27405;53.316;-6.294;2022-07-23T01:09:00;18.90;71.00
41720;DHT22;27405;53.316;-6.294;2022-07-23T01:11:26;18.90;71.00
41720;DHT22;27405;53.316;-6.294;2022-07-23T01:13:52;18.80;71.30
41720;DHT22;27405;53.316;-6.294;2022-07-23T01:16:19;18.80;72.10
41720;DHT22;27405;53.316;-6.294;2022-07-23T01:18:45;18.80;71.50
41720;DHT22;27405;53.316;-6.294;2022-07-23T01:21:14;18.80;71.70
41720;DHT22;27405;53.316;-6.294;2022-07-23T01:23:43;18.80;72.30
41720;DHT22;27405;53.316;-6.294;2022-07-23T01:26:08;18.80;72.60
41720;DHT22;27405;53.316;-6.294;2022-07-23T01:28:34;18.70;72.80
41720;DHT22;27405;53.316;-6.294;2022-07-23T01:31:00;18.70;72.70
41720;DHT22;27405;53.316;-6.294;2022-07-23T01:33:25;18.70;72.90
41720;DHT22;27405;53.316;-6.294;2022-07-23T01:35:51;18.70;73.20
41720;DHT22;27405;53.316;-6.294;2022-07-23T01:38:17;18.70;73.30
41720;DHT22;27405;53.316;-6.294;2022-07-23T01:40:42;18.60;73.50
41720;DHT22;27405;53.316;-6.294;2022-07-23T01:43:08;18.60;73.70
41720;DHT22;27405;53.316;-6.294;2022-07-23T01:45:34;18.60;73.90
41720;DHT22;27405;53.316;-6.294;2022-07-23T01:47:59;18.70;74.00
41720;DHT22;27405;53.316;-6.294;2022-07-23T01:50:25;18.60;74.20
41720;DHT22;27405;53.316;-6.294;2022-07-23T01:52:51;18.70;74.60
41720;DHT22;27405;53.316;-6.294;2022-07-23T01:55:17;18.70;74.70
41720;DHT22;27405;53.316;-6.294;2022-07-23T01:57:42;18.70;74.80
41720;DHT22;27405;53.316;-6.294;2022-07-23T02:00:09;18.70;75.00
41720;DHT22;27405;53.316;-6.294;2022-07-23T02:02:35;18.60;75.20
41720;DHT22;27405;53.316;-6.294;2022-07-23T02:05:00;18.60;75.20
41720;DHT22;27405;53.316;-6.294;2022-07-23T02:07:26;18.60;75.20
41720;DHT22;27405;53.316;-6.294;2022-07-23T02:09:52;18.60;75.10
41720;DHT22;27405;53.316;-6.294;2022-07-23T02:12:17;18.60;74.90
41720;DHT22;27405;53.316;-6.294;2022-07-23T02:14:43;18.60;74.60
41720;DHT22;27405;53.316;-6.294;2022-07-23T02:17:09;18.60;74.20
41720;DHT22;27405;53.316;-6.294;2022-07-23T02:19:34;18.50;73.70
41720;DHT22;27405;53.316;-6.294;2022-07-23T02:22:00;18.50;73.40
41720;DHT22;27405;53.316;-6.294;2022-07-23T02:24:26;18.50;73.40
41720;DHT22;27405;53.316;-6.294;2022-07-23T02:26:52;18.50;73.30
41720;DHT22;27405;53.316;-6.294;2022-07-23T02:29:17;18.40;73.20
41720;DHT22;27405;53.316;-6.294;2022-07-23T02:31:43;18.40;73.20
41720;DHT22;27405;53.316;-6.294;2022-07-23T02:34:09;18.50;73.20
41720;DHT22;27405;53.316;-6.294;2022-07-23T02:36:37;18.40;73.10
41720;DHT22;27405;53.316;-6.294;2022-07-23T02:39:04;18.40;73.30
41720;DHT22;27405;53.316;-6.294;2022-07-23T02:41:29;18.40;73.20
41720;DHT22;27405;53.316;-6.294;2022-07-23T02:43:55;18.40;73.10
41720;DHT22;27405;53.316;-6.294;2022-07-23T02:46:21;18.50;73.20
41720;DHT22;27405;53.316;-6.294;2022-07-23T02:48:46;18.50;73.10
41720;DHT22;27405;53.316;-6.294;2022-07-23T02:51:12;18.50;73.20
41720;DHT22;27405;53.316;-6.294;2022-07-23T02:53:38;18.50;73.40
41720;DHT22;27405;53.316;-6.294;2022-07-23T02:56:04;18.50;73.50
41720;DHT22;27405;53.316;-6.294;2022-07-23T02:58:29;18.50;73.40
41720;DHT22;27405;53.316;-6.294;2022-07-23T03:00:55;18.50;73.30
41720;DHT22;27405;53.316;-6.294;2022-07-23T03:03:21;18.60;73.20
41720;DHT22;27405;53.316;-6.294;2022-07-23T03:05:47;18.50;73.20
41720;DHT22;27405;53.316;-6.294;2022-07-23T03:08:13;18.60;73.90
41720;DHT22;27405;53.316;-6.294;2022-07-23T03:10:39;18.50;73.20
41720;DHT22;27405;53.316;-6.294;2022-07-23T03:13:04;18.50;73.20
41720;DHT22;27405;53.316;-6.294;2022-07-23T03:15:30;18.60;73.30
41720;DHT22;27405;53.316;-6.294;2022-07-23T03:17:56;18.50;73.30
41720;DHT22;27405;53.316;-6.294;2022-07-23T03:20:21;18.50;73.40
41720;DHT22;27405;53.316;-6.294;2022-07-23T03:22:47;18.50;73.60
41720;DHT22;27405;53.316;-6.294;2022-07-23T03:25:13;18.50;73.70
41720;DHT22;27405;53.316;-6.294;2022-07-23T03:27:39;18.50;73.80
41720;DHT22;27405;53.316;-6.294;2022-07-23T03:30:05;18.50;73.90
41720;DHT22;27405;53.316;-6.294;2022-07-23T03:32:30;18.50;74.00
41720;DHT22;27405;53.316;-6.294;2022-07-23T03:34:57;18.50;74.20
41720;DHT22;27405;53.316;-6.294;2022-07-23T03:37:23;18.50;74.40
41720;DHT22;27405;53.316;-6.294;2022-07-23T03:39:48;18.50;74.60
41720;DHT22;27405;53.316;-6.294;2022-07-23T03:42:14;18.50;74.70
41720;DHT22;27405;53.316;-6.294;2022-07-23T03:44:40;18.50;74.80
41720;DHT22;27405;53.316;-6.294;2022-07-23T03:47:06;18.50;75.00
41720;DHT22;27405;53.316;-6.294;2022-07-23T03:49:32;18.50;75.10
41720;DHT22;27405;53.316;-6.294;2022-07-23T03:51:58;18.50;75.30
41720;DHT22;27405;53.316;-6.294;2022-07-23T03:54:24;18.50;75.50
41720;DHT22;27405;53.316;-6.294;2022-07-23T03:56:50;18.50;75.60
41720;DHT22;27405;53.316;-6.294;2022-07-23T03:59:15;18.50;75.70
41720;DHT22;27405;53.316;-6.294;2022-07-23T04:01:41;18.50;75.90
41720;DHT22;27405;53.316;-6.294;2022-07-23T04:04:07;18.50;76.10
41720;DHT22;27405;53.316;-6.294;2022-07-23T04:06:34;18.50;76.30
41720;DHT22;27405;53.316;-6.294;2022-07-23T04:09:00;18.60;76.40
41720;DHT22;27405;53.316;-6.294;2022-07-23T04:11:26;18.60;76.40
41720;DHT22;27405;53.316;-6.294;2022-07-23T04:13:52;18.50;76.30
41720;DHT22;27405;53.316;-6.294;2022-07-23T04:16:18;18.50;76.40
41720;DHT22;27405;53.316;-6.294;2022-07-23T04:18:43;18.50;76.50
41720;DHT22;27405;53.316;-6.294;2022-07-23T04:21:09;18.50;76.70
41720;DHT22;27405;53.316;-6.294;2022-07-23T04:23:34;18.50;77.00
41720;DHT22;27405;53.316;-6.294;2022-07-23T04:26:00;18.50;77.10
41720;DHT22;27405;53.316;-6.294;2022-07-23T04:28:26;18.50;77.40
41720;DHT22;27405;53.316;-6.294;2022-07-23T04:30:52;18.50;77.60
41720;DHT22;27405;53.316;-6.294;2022-07-23T04:33:17;18.50;78.00
41720;DHT22;27405;53.316;-6.294;2022-07-23T04:35:43;18.50;78.00
41720;DHT22;27405;53.316;-6.294;2022-07-23T04:38:09;18.50;78.20
41720;DHT22;27405;53.316;-6.294;2022-07-23T04:40:35;18.50;78.50
41720;DHT22;27405;53.316;-6.294;2022-07-23T04:43:00;18.50;78.80
41720;DHT22;27405;53.316;-6.294;2022-07-23T04:45:26;18.50;79.60
41720;DHT22;27405;53.316;-6.294;2022-07-23T04:47:52;18.50;79.00
41720;DHT22;27405;53.316;-6.294;2022-07-23T04:50:18;18.40;79.00
41720;DHT22;27405;53.316;-6.294;2022-07-23T04:52:47;18.40;79.30
41720;DHT22;27405;53.316;-6.294;2022-07-23T04:55:14;18.50;79.60
41720;DHT22;27405;53.316;-6.294;2022-07-23T04:57:40;18.50;79.70
41720;DHT22;27405;53.316;-6.294;2022-07-23T05:00:07;18.50;79.80
41720;DHT22;27405;53.316;-6.294;2022-07-23T05:02:33;18.50;79.90
41720;DHT22;27405;53.316;-6.294;2022-07-23T05:04:58;18.50;80.00
41720;DHT22;27405;53.316;-6.294;2022-07-23T05:07:24;18.50;80.10
41720;DHT22;27405;53.316;-6.294;2022-07-23T05:09:50;18.50;80.00
41720;DHT22;27405;53.316;-6.294;2022-07-23T05:12:16;18.50;79.50
41720;DHT22;27405;53.316;-6.294;2022-07-23T05:14:41;18.60;79.40
41720;DHT22;27405;53.316;-6.294;2022-07-23T05:17:08;18.60;79.30
41720;DHT22;27405;53.316;-6.294;2022-07-23T05:19:34;18.60;79.30
41720;DHT22;27405;53.316;-6.294;2022-07-23T05:22:00;18.60;79.30
41720;DHT22;27405;53.316;-6.294;2022-07-23T05:24:26;18.60;79.40
41720;DHT22;27405;53.316;-6.294;2022-07-23T05:26:52;18.60;79.40
41720;DHT22;27405;53.316;-6.294;2022-07-23T05:29:18;18.60;79.60
41720;DHT22;27405;53.316;-6.294;2022-07-23T05:31:43;18.60;79.70
41720;DHT22;27405;53.316;-6.294;2022-07-23T05:34:09;18.60;80.40
41720;DHT22;27405;53.316;-6.294;2022-07-23T05:36:35;18.60;79.60
41720;DHT22;27405;53.316;-6.294;2022-07-23T05:39:01;18.60;79.60
41720;DHT22;27405;53.316;-6.294;2022-07-23T05:41:26;18.60;79.70
41720;DHT22;27405;53.316;-6.294;2022-07-23T05:43:52;18.70;79.80
41720;DHT22;27405;53.316;-6.294;2022-07-23T05:46:18;18.70;79.80
41720;DHT22;27405;53.316;-6.294;2022-07-23T05:48:44;18.60;79.80
41720;DHT22;27405;53.316;-6.294;2022-07-23T05:51:11;18.60;79.90
41720;DHT22;27405;53.316;-6.294;2022-07-23T05:53:37;18.60;80.00
41720;DHT22;27405;53.316;-6.294;2022-07-23T05:56:04;18.60;80.10
41720;DHT22;27405;53.316;-6.294;2022-07-23T05:58:29;18.60;80.30
41720;DHT22;27405;53.316;-6.294;2022-07-23T06:00:55;18.60;80.30
41720;DHT22;27405;53.316;-6.294;2022-07-23T06:03:21;18.60;80.40
41720;DHT22;27405;53.316;-6.294;2022-07-23T06:05:47;18.50;80.40
41720;DHT22;27405;53.316;-6.294;2022-07-23T06:08:12;18.60;80.70
41720;DHT22;27405;53.316;-6.294;2022-07-23T06:10:38;18.60;80.80
41720;DHT22;27405;53.316;-6.294;2022-07-23T06:13:04;18.50;80.50
41720;DHT22;27405;53.316;-6.294;2022-07-23T06:15:29;18.50;80.60
41720;DHT22;27405;53.316;-6.294;2022-07-23T06:17:56;18.50;81.30
41720;DHT22;27405;53.316;-6.294;2022-07-23T06:20:21;18.50;80.90
41720;DHT22;27405;53.316;-6.294;2022-07-23T06:22:47;18.50;81.10
41720;DHT22;27405;53.316;-6.294;2022-07-23T06:25:13;18.40;81.20
41720;DHT22;27405;53.316;-6.294;2022-07-23T06:27:38;18.40;81.30
41720;DHT22;27405;53.316;-6.294;2022-07-23T06:30:05;18.40;81.20
41720;DHT22;27405;53.316;-6.294;2022-07-23T06:32:31;18.40;81.30
41720;DHT22;27405;53.316;-6.294;2022-07-23T06:34:56;18.40;81.40
41720;DHT22;27405;53.316;-6.294;2022-07-23T06:37:22;18.40;81.60
41720;DHT22;27405;53.316;-6.294;2022-07-23T06:39:48;18.40;81.80
41720;DHT22;27405;53.316;-6.294;2022-07-23T06:42:14;18.40;82.10
41720;DHT22;27405;53.316;-6.294;2022-07-23T06:44:40;18.40;82.40
41720;DHT22;27405;53.316;-6.294;2022-07-23T06:47:06;18.40;82.70
41720;DHT22;27405;53.316;-6.294;2022-07-23T06:49:31;18.40;82.90
41720;DHT22;27405;53.316;-6.294;2022-07-23T06:51:57;18.50;83.20
41720;DHT22;27405;53.316;-6.294;2022-07-23T06:54:23;18.50;83.50
41720;DHT22;27405;53.316;-6.294;2022-07-23T06:56:49;18.50;83.50
41720;DHT22;27405;53.316;-6.294;2022-07-23T06:59:15;18.50;83.60
41720;DHT22;27405;53.316;-6.294;2022-07-23T07:01:40;18.50;83.70
41720;DHT22;27405;53.316;-6.294;2022-07-23T07:04:06;18.50;83.80
41720;DHT22;27405;53.316;-6.294;2022-07-23T07:06:32;18.50;83.90
41720;DHT22;27405;53.316;-6.294;2022-07-23T07:08:57;18.50;84.10
41720;DHT22;27405;53.316;-6.294;2022-07-23T07:11:23;18.40;84.10
41720;DHT22;27405;53.316;-6.294;2022-07-23T07:13:50;18.50;84.30
41720;DHT22;27405;53.316;-6.294;2022-07-23T07:16:16;18.50;84.60
41720;DHT22;27405;53.316;-6.294;2022-07-23T07:18:42;18.50;84.60
41720;DHT22;27405;53.316;-6.294;2022-07-23T07:21:07;18.50;84.60
41720;DHT22;27405;53.316;-6.294;2022-07-23T07:23:33;18.60;84.90
41720;DHT22;27405;53.316;-6.294;2022-07-23T07:25:59;18.50;84.90
41720;DHT22;27405;53.316;-6.294;2022-07-23T07:28:25;18.60;85.10
41720;DHT22;27405;53.316;-6.294;2022-07-23T07:30:50;18.60;85.20
41720;DHT22;27405;53.316;-6.294;2022-07-23T07:33:16;18.70;85.20
41720;DHT22;27405;53.316;-6.294;2022-07-23T07:35:42;18.80;85.20
41720;DHT22;27405;53.316;-6.294;2022-07-23T07:38:08;18.80;85.10
41720;DHT22;27405;53.316;-6.294;2022-07-23T07:40:34;18.90;84.90
41720;DHT22;27405;53.316;-6.294;2022-07-23T07:43:00;18.90;84.80
41720;DHT22;27405;53.316;-6.294;2022-07-23T07:45:27;18.90;85.00
41720;DHT22;27405;53.316;-6.294;2022-07-23T07:47:53;18.90;85.00
41720;DHT22;27405;53.316;-6.294;2022-07-23T07:50:19;18.90;85.10
41720;DHT22;27405;53.316;-6.294;2022-07-23T07:52:45;19.00;85.30
41720;DHT22;27405;53.316;-6.294;2022-07-23T07:55:11;19.00;85.50
41720;DHT22;27405;53.316;-6.294;2022-07-23T07:57:38;19.10;85.40
41720;DHT22;27405;53.316;-6.294;2022-07-23T08:00:05;19.20;85.30
41720;DHT22;27405;53.316;-6.294;2022-07-23T08:02:44;19.30;85.00
41720;DHT22;27405;53.316;-6.294;2022-07-23T08:05:10;19.30;85.00
41720;DHT22;27405;53.316;-6.294;2022-07-23T08:07:36;19.30;84.80
41720;DHT22;27405;53.316;-6.294;2022-07-23T08:10:03;19.30;84.90
41720;DHT22;27405;53.316;-6.294;2022-07-23T08:12:38;19.20;85.00
41720;DHT22;27405;53.316;-6.294;2022-07-23T08:15:05;19.30;85.20
41720;DHT22;27405;53.316;-6.294;2022-07-23T08:17:30;19.30;85.10
41720;DHT22;27405;53.316;-6.294;2022-07-23T08:19:56;19.40;85.10
41720;DHT22;27405;53.316;-6.294;2022-07-23T08:22:22;19.40;85.10
41720;DHT22;27405;53.316;-6.294;2022-07-23T08:24:48;19.30;84.90
41720;DHT22;27405;53.316;-6.294;2022-07-23T08:27:13;19.40;84.50
41720;DHT22;27405;53.316;-6.294;2022-07-23T08:29:39;19.40;84.20
41720;DHT22;27405;53.316;-6.294;2022-07-23T08:32:05;19.50;84.00
41720;DHT22;27405;53.316;-6.294;2022-07-23T08:34:30;19.50;83.60
41720;DHT22;27405;53.316;-6.294;2022-07-23T08:36:56;19.60;83.50
41720;DHT22;27405;53.316;-6.294;2022-07-23T08:39:22;19.70;83.20
41720;DHT22;27405;53.316;-6.294;2022-07-23T08:41:47;19.80;82.90
41720;DHT22;27405;53.316;-6.294;2022-07-23T08:44:16;19.80;82.50
41720;DHT22;27405;53.316;-6.294;2022-07-23T08:46:43;19.90;82.50
41720;DHT22;27405;53.316;-6.294;2022-07-23T08:49:09;20.00;82.40
41720;DHT22;27405;53.316;-6.294;2022-07-23T08:51:35;20.10;82.50
41720;DHT22;27405;53.316;-6.294;2022-07-23T08:54:01;20.20;82.10
41720;DHT22;27405;53.316;-6.294;2022-07-23T08:56:27;20.30;81.50
41720;DHT22;27405;53.316;-6.294;2022-07-23T08:58:55;20.20;80.90
41720;DHT22;27405;53.316;-6.294;2022-07-23T09:01:21;20.30;80.70
41720;DHT22;27405;53.316;-6.294;2022-07-23T09:03:47;20.30;80.60
41720;DHT22;27405;53.316;-6.294;2022-07-23T09:06:12;20.30;80.90
41720;DHT22;27405;53.316;-6.294;2022-07-23T09:08:43;20.20;80.90
41720;DHT22;27405;53.316;-6.294;2022-07-23T09:11:11;20.20;81.30
41720;DHT22;27405;53.316;-6.294;2022-07-23T09:13:41;20.20;81.60
41720;DHT22;27405;53.316;-6.294;2022-07-23T09:16:15;20.20;81.70
41720;DHT22;27405;53.316;-6.294;2022-07-23T09:21:30;20.20;81.80
41720;DHT22;27405;53.316;-6.294;2022-07-23T09:24:04;20.20;81.90
41720;DHT22;27405;53.316;-6.294;2022-07-23T09:26:43;20.20;82.00
41720;DHT22;27405;53.316;-6.294;2022-07-23T09:31:58;20.20;81.60
41720;DHT22;27405;53.316;-6.294;2022-07-23T09:34:31;20.20;81.70
41720;DHT22;27405;53.316;-6.294;2022-07-23T09:37:17;20.20;81.90
41720;DHT22;27405;53.316;-6.294;2022-07-23T09:39:44;20.10;82.10
41720;DHT22;27405;53.316;-6.294;2022-07-23T09:44:50;20.20;81.90
41720;DHT22;27405;53.316;-6.294;2022-07-23T09:47:16;20.30;81.80
41720;DHT22;27405;53.316;-6.294;2022-07-23T09:52:34;20.50;81.80
41720;DHT22;27405;53.316;-6.294;2022-07-23T09:55:03;20.60;81.00
41720;DHT22;27405;53.316;-6.294;2022-07-23T09:57:29;20.70;80.50
41720;DHT22;27405;53.316;-6.294;2022-07-23T09:59:58;20.80;80.20
41720;DHT22;27405;53.316;-6.294;2022-07-23T10:02:26;21.00;79.80
41720;DHT22;27405;53.316;-6.294;2022-07-23T10:04:54;21.10;79.50
41720;DHT22;27405;53.316;-6.294;2022-07-23T10:07:25;21.30;79.10
41720;DHT22;27405;53.316;-6.294;2022-07-23T10:09:52;21.30;78.70
41720;DHT22;27405;53.316;-6.294;2022-07-23T10:12:19;21.40;78.40
41720;DHT22;27405;53.316;-6.294;2022-07-23T10:14:46;21.50;78.20
41720;DHT22;27405;53.316;-6.294;2022-07-23T10:17:12;21.60;77.80
41720;DHT22;27405;53.316;-6.294;2022-07-23T10:19:38;21.60;77.10
41720;DHT22;27405;53.316;-6.294;2022-07-23T10:22:13;21.70;76.80
41720;DHT22;27405;53.316;-6.294;2022-07-23T10:28:03;21.90;76.60
41720;DHT22;27405;53.316;-6.294;2022-07-23T10:33:17;21.80;76.00
41720;DHT22;27405;53.316;-6.294;2022-07-23T10:41:32;21.90;76.50
41720;DHT22;27405;53.316;-6.294;2022-07-23T10:44:21;22.00;75.90
41720;DHT22;27405;53.316;-6.294;2022-07-23T10:46:55;22.00;75.80
41720;DHT22;27405;53.316;-6.294;2022-07-23T10:49:29;22.10;75.80
41720;DHT22;27405;53.316;-6.294;2022-07-23T10:55:38;22.20;75.20
41720;DHT22;27405;53.316;-6.294;2022-07-23T10:57:49;22.30;75.30
41720;DHT22;27405;53.316;-6.294;2022-07-23T11:00:19;22.40;74.60
41720;DHT22;27405;53.316;-6.294;2022-07-23T11:02:46;22.60;74.40
41720;DHT22;27405;53.316;-6.294;2022-07-23T11:05:19;22.80;74.20
41720;DHT22;27405;53.316;-6.294;2022-07-23T11:10:52;23.20;72.80
41720;DHT22;27405;53.316;-6.294;2022-07-23T11:13:39;23.40;72.00
41720;DHT22;27405;53.316;-6.294;2022-07-23T11:18:55;23.50;71.60
41720;DHT22;27405;53.316;-6.294;2022-07-23T11:24:06;23.90;71.00
41720;DHT22;27405;53.316;-6.294;2022-07-23T11:26:45;24.10;70.30
41720;DHT22;27405;53.316;-6.294;2022-07-23T11:34:31;24.40;69.30
41720;DHT22;27405;53.316;-6.294;2022-07-23T11:36:58;24.50;69.30
41720;DHT22;27405;53.316;-6.294;2022-07-23T11:39:26;24.60;68.90
41720;DHT22;27405;53.316;-6.294;2022-07-23T11:41:54;24.60;68.80
41720;DHT22;27405;53.316;-6.294;2022-07-23T11:44:36;24.60;68.60
41720;DHT22;27405;53.316;-6.294;2022-07-23T11:47:05;24.70;68.50
41720;DHT22;27405;53.316;-6.294;2022-07-23T11:49:31;24.90;68.00
41720;DHT22;27405;53.316;-6.294;2022-07-23T11:54:32;24.90;67.70
41720;DHT22;27405;53.316;-6.294;2022-07-23T11:56:59;24.90;67.50
41720;DHT22;27405;53.316;-6.294;2022-07-23T11:59:31;24.80;67.20
41720;DHT22;27405;53.316;-6.294;2022-07-23T12:02:03;24.70;67.60
41720;DHT22;27405;53.316;-6.294;2022-07-23T12:04:50;24.60;67.80
41720;DHT22;27405;53.316;-6.294;2022-07-23T12:07:36;24.60;67.80
41720;DHT22;27405;53.316;-6.294;2022-07-23T12:10:24;24.70;68.20
41720;DHT22;27405;53.316;-6.294;2022-07-23T12:12:53;24.80;68.30
41720;DHT22;27405;53.316;-6.294;2022-07-23T12:15:25;24.90;68.00
41720;DHT22;27405;53.316;-6.294;2022-07-23T12:17:52;24.90;67.50
41720;DHT22;27405;53.316;-6.294;2022-07-23T12:20:24;25.00;67.40
41720;DHT22;27405;53.316;-6.294;2022-07-23T12:22:53;25.10;67.20
41720;DHT22;27405;53.316;-6.294;2022-07-23T12:25:23;25.20;66.60
41720;DHT22;27405;53.316;-6.294;2022-07-23T12:30:40;25.10;66.50
41720;DHT22;27405;53.316;-6.294;2022-07-23T12:33:09;25.20;66.40
41720;DHT22;27405;53.316;-6.294;2022-07-23T12:35:39;25.30;66.60
41720;DHT22;27405;53.316;-6.294;2022-07-23T12:38:09;25.40;66.30
41720;DHT22;27405;53.316;-6.294;2022-07-23T12:40:41;25.40;65.80
41720;DHT22;27405;53.316;-6.294;2022-07-23T12:43:10;25.40;65.80
41720;DHT22;27405;53.316;-6.294;2022-07-23T12:45:45;25.40;65.60
41720;DHT22;27405;53.316;-6.294;2022-07-23T12:51:14;25.40;65.80
41720;DHT22;27405;53.316;-6.294;2022-07-23T12:53:46;25.30;65.50
41720;DHT22;27405;53.316;-6.294;2022-07-23T12:56:14;25.30;65.70
41720;DHT22;27405;53.316;-6.294;2022-07-23T12:58:41;25.40;66.00
41720;DHT22;27405;53.316;-6.294;2022-07-23T13:01:07;25.50;65.60
41720;DHT22;27405;53.316;-6.294;2022-07-23T13:03:37;25.60;65.30
41720;DHT22;27405;53.316;-6.294;2022-07-23T13:06:04;25.70;64.90
41720;DHT22;27405;53.316;-6.294;2022-07-23T13:08:32;25.90;64.60
41720;DHT22;27405;53.316;-6.294;2022-07-23T13:10:58;25.90;64.50
41720;DHT22;27405;53.316;-6.294;2022-07-23T13:13:26;26.10;64.50
41720;DHT22;27405;53.316;-6.294;2022-07-23T13:15:53;26.20;64.40
41720;DHT22;27405;53.316;-6.294;2022-07-23T13:18:19;26.30;64.00
41720;DHT22;27405;53.316;-6.294;2022-07-23T13:20:46;26.40;63.70
41720;DHT22;27405;53.316;-6.294;2022-07-23T13:23:13;26.50;63.50
41720;DHT22;27405;53.316;-6.294;2022-07-23T13:25:38;26.50;63.50
41720;DHT22;27405;53.316;-6.294;2022-07-23T13:28:05;26.70;63.50
41720;DHT22;27405;53.316;-6.294;2022-07-23T13:30:30;26.90;62.90
41720;DHT22;27405;53.316;-6.294;2022-07-23T13:32:56;27.00;62.90
41720;DHT22;27405;53.316;-6.294;2022-07-23T13:35:23;27.00;63.10
41720;DHT22;27405;53.316;-6.294;2022-07-23T13:37:48;26.90;62.40
41720;DHT22;27405;53.316;-6.294;2022-07-23T13:40:14;26.80;62.70
41720;DHT22;27405;53.316;-6.294;2022-07-23T13:42:40;26.70;62.80
41720;DHT22;27405;53.316;-6.294;2022-07-23T13:45:07;26.70;62.80
41720;DHT22;27405;53.316;-6.294;2022-07-23T13:47:33;26.70;62.90
41720;DHT22;27405;53.316;-6.294;2022-07-23T13:49:59;26.70;62.60
41720;DHT22;27405;53.316;-6.294;2022-07-23T13:52:24;26.60;62.70
41720;DHT22;27405;53.316;-6.294;2022-07-23T13:54:50;26.40;62.80
41720;DHT22;27405;53.316;-6.294;2022-07-23T13:57:16;26.30;63.00
41720;DHT22;27405;53.316;-6.294;2022-07-23T13:59:42;26.20;63.30
41720;DHT22;27405;53.316;-6.294;2022-07-23T14:02:08;26.20;64.00
41720;DHT22;27405;53.316;-6.294;2022-07-23T14:04:34;26.20;64.00
41720;DHT22;27405;53.316;-6.294;2022-07-23T14:07:00;26.30;63.70
41720;DHT22;27405;53.316;-6.294;2022-07-23T14:09:26;26.40;63.90
41720;DHT22;27405;53.316;-6.294;2022-07-23T14:11:52;26.50;63.70
41720;DHT22;27405;53.316;-6.294;2022-07-23T14:14:18;26.50;63.60
41720;DHT22;27405;53.316;-6.294;2022-07-23T14:16:44;26.60;63.60
41720;DHT22;27405;53.316;-6.294;2022-07-23T14:19:10;26.70;63.70
41720;DHT22;27405;53.316;-6.294;2022-07-23T14:21:37;26.80;63.50
41720;DHT22;27405;53.316;-6.294;2022-07-23T14:24:03;26.90;63.30
41720;DHT22;27405;53.316;-6.294;2022-07-23T14:26:29;26.90;63.10
41720;DHT22;27405;53.316;-6.294;2022-07-23T14:28:55;26.90;63.00
41720;DHT22;27405;53.316;-6.294;2022-07-23T14:31:21;27.00;63.20
41720;DHT22;27405;53.316;-6.294;2022-07-23T14:33:47;27.10;63.00
41720;DHT22;27405;53.316;-6.294;2022-07-23T14:36:13;27.10;62.80
41720;DHT22;27405;53.316;-6.294;2022-07-23T14:38:39;27.00;62.90
41720;DHT22;27405;53.316;-6.294;2022-07-23T14:41:05;27.10;63.00
41720;DHT22;27405;53.316;-6.294;2022-07-23T14:43:32;27.20;62.80
41720;DHT22;27405;53.316;-6.294;2022-07-23T14:45:58;27.10;62.50
41720;DHT22;27405;53.316;-6.294;2022-07-23T14:48:24;27.10;62.80
41720;DHT22;27405;53.316;-6.294;2022-07-23T14:50:49;27.20;62.70
41720;DHT22;27405;53.316;-6.294;2022-07-23T14:53:15;27.40;62.50
41720;DHT22;27405;53.316;-6.294;2022-07-23T14:55:41;27.40;62.10
41720;DHT22;27405;53.316;-6.294;2022-07-23T14:58:07;27.40;62.10
41720;DHT22;27405;53.316;-6.294;2022-07-23T15:00:33;27.30;62.00
41720;DHT22;27405;53.316;-6.294;2022-07-23T15:02:58;27.30;62.20
41720;DHT22;27405;53.316;-6.294;2022-07-23T15:05:24;27.20;62.00
41720;DHT22;27405;53.316;-6.294;2022-07-23T15:07:50;27.10;62.00
41720;DHT22;27405;53.316;-6.294;2022-07-23T15:10:16;27.10;62.20
41720;DHT22;27405;53.316;-6.294;2022-07-23T15:12:41;27.10;62.30
41720;DHT22;27405;53.316;-6.294;2022-07-23T15:15:07;27.20;62.40
41720;DHT22;27405;53.316;-6.294;2022-07-23T15:17:33;27.50;62.40
41720;DHT22;27405;53.316;-6.294;2022-07-23T15:19:59;28.20;62.10
41720;DHT22;27405;53.316;-6.294;2022-07-23T15:22:25;29.00;60.30
41720;DHT22;27405;53.316;-6.294;2022-07-23T15:24:51;29.60;58.80
41720;DHT22;27405;53.316;-6.294;2022-07-23T15:27:16;29.50;57.30
41720;DHT22;27405;53.316;-6.294;2022-07-23T15:29:44;29.00;57.30
41720;DHT22;27405;53.316;-6.294;2022-07-23T15:32:10;28.50;58.20
41720;DHT22;27405;53.316;-6.294;2022-07-23T15:34:37;28.10;58.80
41720;DHT22;27405;53.316;-6.294;2022-07-23T15:37:03;27.90;59.30
41720;DHT22;27405;53.316;-6.294;2022-07-23T15:39:30;27.70;59.70
41720;DHT22;27405;53.316;-6.294;2022-07-23T15:41:58;27.60;60.00
41720;DHT22;27405;53.316;-6.294;2022-07-23T15:44:24;27.50;60.00
41720;DHT22;27405;53.316;-6.294;2022-07-23T15:46:50;27.20;60.40
41720;DHT22;27405;53.316;-6.294;2022-07-23T15:49:15;26.90;60.80
41720;DHT22;27405;53.316;-6.294;2022-07-23T15:51:41;26.60;61.30
41720;DHT22;27405;53.316;-6.294;2022-07-23T15:54:07;26.40;61.90
41720;DHT22;27405;53.316;-6.294;2022-07-23T15:56:32;26.20;62.40
41720;DHT22;27405;53.316;-6.294;2022-07-23T15:58:58;26.10;63.00
41720;DHT22;27405;53.316;-6.294;2022-07-23T16:01:24;26.10;63.50